Time;durP1;ratioP1;P1;durP2;ratioP2;P2;SDS_P1;SDS_P2;PMS_P1;PMS_P2;Temp;Humidity;BMP_temperature;BMP_pressure;BME280_temperature;BME280_humidity;BME280_pressure;Samples;Min_cycle;Max_cycle;Signal;HPM_P1;HPM_P2
2022/01/04 00:01:57;;;;;;;33.97;13.63;;;;;;;;;;5073134;28;20221;-67
2022/01/04 00:04:25;;;;;;;25.87;11.90;;;;;;;;;;5073286;28;20202;-65
2022/01/04 00:06:53;;;;;;;29.30;13.30;;;;;;;;;;5072818;28;20269;-67
2022/01/04 00:09:21;;;;;;;37.60;17.17;;;;;;;;;;5074874;28;20215;-70
2022/01/04 00:14:19;;;;;;;45.10;16.23;;;;;;;;;;5077334;28;20215;-73
2022/01/04 00:16:46;;;;;;;22.53;10.10;;;;;;;;;;5076901;28;20215;-70
2022/01/04 00:19:13;;;;;;;28.80;12.40;;;;;;;;;;5076686;28;20207;-68
2022/01/04 00:21:42;;;;;;;30.77;13.20;;;;;;;;;;5076406;28;20215;-64
2022/01/04 00:24:09;;;;;;;83.67;24.37;;;;;;;;;;5076694;28;20322;-70
2022/01/04 00:26:37;;;;;;;80.77;21.50;;;;;;;;;;5076360;28;20685;-64
2022/01/04 00:29:04;;;;;;;38.23;14.63;;;;;;;;;;5076459;28;20290;-72
2022/01/04 00:31:31;;;;;;;30.50;11.57;;;;;;;;;;5076487;28;20211;-68
2022/01/04 00:33:59;;;;;;;27.67;9.30;;;;;;;;;;5076272;28;20227;-73
2022/01/04 00:36:26;;;;;;;28.30;10.47;;;;;;;;;;5076218;28;20215;-66
2022/01/04 00:38:53;;;;;;;35.73;11.43;;;;;;;;;;5075963;28;20681;-63
2022/01/04 00:41:20;;;;;;;64.30;18.07;;;;;;;;;;5076195;28;20211;-71
2022/01/04 00:43:47;;;;;;;37.70;12.50;;;;;;;;;;5076351;28;20257;-72
2022/01/04 00:46:17;;;;;;;34.73;12.50;;;;;;;;;;5076097;28;20845;-62
2022/01/04 00:51:26;;;;;;;31.03;17.40;;;;;;;;;;5075918;28;20278;-63
2022/01/04 00:53:54;;;;;;;33.37;13.97;;;;;;;;;;5075777;28;20744;-63
2022/01/04 00:56:21;;;;;;;24.50;9.47;;;;;;;;;;5074894;28;20298;-68
2022/01/04 00:58:48;;;;;;;20.97;10.20;;;;;;;;;;5075771;28;20254;-62
2022/01/04 01:01:16;;;;;;;24.67;8.93;;;;;;;;;;5075889;28;20208;-66
2022/01/04 01:03:43;;;;;;;29.37;10.23;;;;;;;;;;5075650;28;20218;-63
2022/01/04 01:06:11;;;;;;;31.53;11.87;;;;;;;;;;5075802;28;20246;-62
2022/01/04 01:08:39;;;;;;;20.30;9.37;;;;;;;;;;5075731;28;20362;-62
2022/01/04 01:11:07;;;;;;;30.13;10.20;;;;;;;;;;5074353;28;20203;-62
2022/01/04 01:13:35;;;;;;;29.43;10.70;;;;;;;;;;5075752;28;20238;-72
2022/01/04 01:16:03;;;;;;;31.77;11.03;;;;;;;;;;5075573;28;20211;-73
2022/01/04 01:18:30;;;;;;;39.23;13.57;;;;;;;;;;5073880;28;20243;-67
2022/01/04 01:20:57;;;;;;;33.77;12.50;;;;;;;;;;5074217;28;20223;-70
2022/01/04 01:23:25;;;;;;;29.23;12.10;;;;;;;;;;5075128;28;20219;-72
2022/01/04 01:25:52;;;;;;;29.93;13.43;;;;;;;;;;5075180;28;20293;-72
2022/01/04 01:28:20;;;;;;;38.83;14.43;;;;;;;;;;5075356;28;20203;-72
2022/01/04 01:30:48;;;;;;;32.53;14.10;;;;;;;;;;5075489;28;20215;-73
2022/01/04 01:33:16;;;;;;;40.80;17.50;;;;;;;;;;5075308;28;20339;-73
2022/01/04 01:35:44;;;;;;;36.10;16.10;;;;;;;;;;5075310;28;20214;-70
2022/01/04 01:38:14;;;;;;;44.80;18.07;;;;;;;;;;5074792;28;20207;-73
2022/01/04 01:40:41;;;;;;;31.77;12.57;;;;;;;;;;5075114;28;20199;-70
2022/01/04 01:43:09;;;;;;;27.00;12.43;;;;;;;;;;5074892;28;20733;-72
2022/01/04 01:45:36;;;;;;;30.57;14.50;;;;;;;;;;5074997;28;20208;-73
2022/01/04 01:48:04;;;;;;;39.63;15.20;;;;;;;;;;5073862;28;20211;-73
2022/01/04 01:50:32;;;;;;;37.53;13.83;;;;;;;;;;5074824;28;20211;-70
2022/01/04 01:53:00;;;;;;;57.53;22.83;;;;;;;;;;5074816;28;20235;-73
2022/01/04 01:55:27;;;;;;;60.83;20.33;;;;;;;;;;5074992;28;20220;-65
2022/01/04 01:57:54;;;;;;;27.13;14.00;;;;;;;;;;5074430;28;20239;-73
2022/01/04 02:00:26;;;;;;;33.83;13.30;;;;;;;;;;5074577;28;20218;-70
2022/01/04 02:02:53;;;;;;;36.10;14.53;;;;;;;;;;5074545;28;20283;-63
2022/01/04 02:05:21;;;;;;;35.67;14.03;;;;;;;;;;5074289;28;20215;-68
2022/01/04 02:07:49;;;;;;;32.40;13.37;;;;;;;;;;5074445;28;20215;-70
2022/01/04 02:10:16;;;;;;;41.30;14.90;;;;;;;;;;5074419;28;20624;-73
2022/01/04 02:12:46;;;;;;;37.40;13.37;;;;;;;;;;5074057;28;20710;-66
2022/01/04 02:15:17;;;;;;;24.23;12.77;;;;;;;;;;5073312;28;20195;-70
2022/01/04 02:17:45;;;;;;;39.80;15.23;;;;;;;;;;5074509;28;20311;-72
2022/01/04 02:20:14;;;;;;;22.57;10.63;;;;;;;;;;5074334;28;20290;-63
2022/01/04 02:22:41;;;;;;;21.47;10.30;;;;;;;;;;5073977;28;20210;-67
2022/01/04 02:25:09;;;;;;;27.47;10.90;;;;;;;;;;5073948;28;20654;-67
2022/01/04 02:27:39;;;;;;;22.90;10.83;;;;;;;;;;5074170;28;20211;-66
2022/01/04 02:30:09;;;;;;;26.07;11.83;;;;;;;;;;5074438;28;20211;-66
2022/01/04 02:32:36;;;;;;;24.00;10.37;;;;;;;;;;5072854;28;20239;-63
2022/01/04 02:35:04;;;;;;;47.90;15.03;;;;;;;;;;5064830;28;20739;-66
2022/01/04 02:37:33;;;;;;;22.77;10.90;;;;;;;;;;5073904;28;20615;-63
2022/01/04 02:40:01;;;;;;;29.80;11.17;;;;;;;;;;5073821;28;20211;-62
2022/01/04 02:42:28;;;;;;;32.20;12.57;;;;;;;;;;5074006;28;20218;-66
2022/01/04 02:44:55;;;;;;;30.40;11.10;;;;;;;;;;5074144;28;20208;-62
2022/01/04 02:47:22;;;;;;;24.37;9.83;;;;;;;;;;5073754;28;20230;-68
2022/01/04 02:49:50;;;;;;;30.30;10.63;;;;;;;;;;5073725;28;20203;-63
2022/01/04 02:52:17;;;;;;;25.70;9.87;;;;;;;;;;5073927;28;20540;-67
2022/01/04 02:54:44;;;;;;;41.40;13.03;;;;;;;;;;5073517;28;20215;-63
2022/01/04 02:57:11;;;;;;;36.40;16.40;;;;;;;;;;5073505;28;20240;-62
2022/01/04 02:59:39;;;;;;;28.60;11.80;;;;;;;;;;5073677;28;20204;-62
2022/01/04 03:02:06;;;;;;;25.63;10.13;;;;;;;;;;5073955;28;20211;-62
2022/01/04 03:04:34;;;;;;;27.17;10.40;;;;;;;;;;5073792;28;20219;-63
2022/01/04 03:07:02;;;;;;;25.80;10.27;;;;;;;;;;5073631;28;20214;-68
2022/01/04 03:09:29;;;;;;;34.37;12.87;;;;;;;;;;5073717;28;20207;-71
2022/01/04 03:11:57;;;;;;;34.50;12.80;;;;;;;;;;5073747;28;20211;-70
2022/01/04 03:14:25;;;;;;;30.67;11.07;;;;;;;;;;5073308;28;20242;-72
2022/01/04 03:16:52;;;;;;;99.37;40.90;;;;;;;;;;5073578;28;20211;-70
2022/01/04 03:19:19;;;;;;;26.87;11.47;;;;;;;;;;5073594;28;20246;-72
2022/01/04 03:21:46;;;;;;;28.90;11.90;;;;;;;;;;5073774;28;20208;-64
2022/01/04 03:24:15;;;;;;;23.90;9.33;;;;;;;;;;5072115;28;20261;-66
2022/01/04 03:26:42;;;;;;;34.20;10.73;;;;;;;;;;5072367;28;20207;-69
2022/01/04 03:29:12;;;;;;;27.87;10.83;;;;;;;;;;5073491;28;20218;-67
2022/01/04 03:31:39;;;;;;;28.97;10.03;;;;;;;;;;5073456;28;20208;-68
2022/01/04 03:34:07;;;;;;;23.20;9.83;;;;;;;;;;5073422;28;20247;-68
2022/01/04 03:36:35;;;;;;;32.23;10.93;;;;;;;;;;5073137;28;20222;-66
2022/01/04 03:39:05;;;;;;;27.23;10.57;;;;;;;;;;5072161;28;20211;-70
2022/01/04 03:41:37;;;;;;;87.70;22.17;;;;;;;;;;5073074;28;20639;-62
2022/01/04 03:44:06;;;;;;;42.87;12.93;;;;;;;;;;5075052;28;20654;-63
2022/01/04 03:46:34;;;;;;;48.20;13.20;;;;;;;;;;5077090;28;20336;-66
2022/01/04 03:49:01;;;;;;;29.43;10.17;;;;;;;;;;5077106;28;20215;-64
2022/01/04 03:51:29;;;;;;;35.13;11.00;;;;;;;;;;5076975;28;20670;-68
2022/01/04 03:54:02;;;;;;;29.77;10.67;;;;;;;;;;5076959;28;20262;-66
2022/01/04 03:56:29;;;;;;;30.83;9.63;;;;;;;;;;5075641;28;20681;-65
2022/01/04 03:58:57;;;;;;;52.80;13.47;;;;;;;;;;5076979;28;20235;-62
2022/01/04 04:01:24;;;;;;;30.43;11.17;;;;;;;;;;5076830;28;20693;-66
2022/01/04 04:03:52;;;;;;;39.27;12.40;;;;;;;;;;5077070;28;20211;-65
2022/01/04 04:06:19;;;;;;;23.97;9.27;;;;;;;;;;5076721;28;20211;-71
2022/01/04 04:08:47;;;;;;;31.90;9.90;;;;;;;;;;5076644;28;20212;-63
2022/01/04 04:11:14;;;;;;;36.27;10.33;;;;;;;;;;5076533;28;20572;-64
2022/01/04 04:13:41;;;;;;;37.77;12.67;;;;;;;;;;5076758;28;20235;-63
2022/01/04 04:16:08;;;;;;;25.93;10.40;;;;;;;;;;5076741;28;20215;-64
2022/01/04 04:18:36;;;;;;;28.83;10.50;;;;;;;;;;5076552;28;20222;-62
2022/01/04 04:21:03;;;;;;;38.73;20.03;;;;;;;;;;5076579;28;20207;-62
2022/01/04 04:23:30;;;;;;;21.40;9.60;;;;;;;;;;5075088;28;20235;-62
2022/01/04 04:25:57;;;;;;;21.57;8.73;;;;;;;;;;5076668;28;20242;-63
2022/01/04 04:28:24;;;;;;;24.90;9.90;;;;;;;;;;5076233;28;20222;-65
2022/01/04 04:30:52;;;;;;;26.93;9.90;;;;;;;;;;5076251;28;20294;-62
2022/01/04 04:33:19;;;;;;;41.90;13.70;;;;;;;;;;5076087;28;20255;-64
2022/01/04 04:35:47;;;;;;;32.10;11.90;;;;;;;;;;5076134;28;20214;-65
2022/01/04 04:38:14;;;;;;;31.73;11.50;;;;;;;;;;5075664;28;20727;-65
2022/01/04 04:40:41;;;;;;;111.30;28.03;;;;;;;;;;5076314;28;20256;-64
2022/01/04 04:43:08;;;;;;;45.43;16.37;;;;;;;;;;5076218;28;20211;-63
2022/01/04 04:45:35;;;;;;;34.63;11.87;;;;;;;;;;5075770;28;20609;-66
2022/01/04 04:48:03;;;;;;;27.73;10.13;;;;;;;;;;5076300;28;20215;-63
2022/01/04 04:50:31;;;;;;;24.40;11.10;;;;;;;;;;5076076;28;20230;-64
2022/01/04 04:52:58;;;;;;;29.80;10.77;;;;;;;;;;5075872;28;20724;-68
2022/01/04 04:55:26;;;;;;;29.90;10.67;;;;;;;;;;5076020;28;20203;-65
2022/01/04 04:57:53;;;;;;;24.50;9.40;;;;;;;;;;5075638;28;20238;-66
2022/01/04 05:00:20;;;;;;;28.53;11.30;;;;;;;;;;5076064;28;20207;-65
2022/01/04 05:02:47;;;;;;;32.43;16.43;;;;;;;;;;5068367;28;20258;-64
2022/01/04 05:05:15;;;;;;;25.57;10.07;;;;;;;;;;5071999;28;20239;-69
2022/01/04 05:07:43;;;;;;;28.80;11.20;;;;;;;;;;5073728;28;20243;-70
2022/01/04 05:10:10;;;;;;;22.77;10.50;;;;;;;;;;5074005;28;20593;-72
2022/01/04 05:12:38;;;;;;;33.97;11.67;;;;;;;;;;5073175;28;20312;-71
2022/01/04 05:15:06;;;;;;;25.03;10.57;;;;;;;;;;5074417;28;20247;-71
2022/01/04 05:17:33;;;;;;;23.40;11.07;;;;;;;;;;5073005;28;20266;-66
2022/01/04 05:20:01;;;;;;;29.00;10.20;;;;;;;;;;5073514;28;20231;-66
2022/01/04 05:22:28;;;;;;;434.70;120.47;;;;;;;;;;5074577;28;20600;-68
2022/01/04 05:24:56;;;;;;;38.80;13.90;;;;;;;;;;5075413;28;20639;-69
2022/01/04 05:27:23;;;;;;;25.40;10.60;;;;;;;;;;5074389;28;20635;-69
2022/01/04 05:29:50;;;;;;;25.77;11.60;;;;;;;;;;5073832;28;20238;-63
2022/01/04 05:32:17;;;;;;;29.17;11.10;;;;;;;;;;5074658;28;20239;-68
2022/01/04 05:34:44;;;;;;;27.03;10.63;;;;;;;;;;5068978;28;20290;-73
2022/01/04 05:37:12;;;;;;;23.70;10.83;;;;;;;;;;5059199;28;20239;-69
2022/01/04 05:39:39;;;;;;;29.67;11.23;;;;;;;;;;5071468;28;20232;-71
2022/01/04 05:42:08;;;;;;;47.23;13.50;;;;;;;;;;5074767;28;20235;-70
2022/01/04 05:44:37;;;;;;;25.87;11.30;;;;;;;;;;5073261;28;20234;-70
2022/01/04 05:47:05;;;;;;;35.20;11.87;;;;;;;;;;5073898;28;20238;-72
2022/01/04 05:49:33;;;;;;;36.30;14.53;;;;;;;;;;5054135;28;20239;-72
2022/01/04 05:52:04;;;;;;;38.77;20.27;;;;;;;;;;5054395;28;20586;-72
2022/01/04 05:54:32;;;;;;;25.70;12.50;;;;;;;;;;5054219;28;20247;-67
2022/01/04 05:56:59;;;;;;;40.50;14.43;;;;;;;;;;5054348;28;20310;-74
2022/01/04 05:59:26;;;;;;;25.27;11.70;;;;;;;;;;5053922;28;20798;-74
2022/01/04 06:01:54;;;;;;;22.03;10.40;;;;;;;;;;5053571;28;20706;-73
2022/01/04 06:04:21;;;;;;;79.97;40.13;;;;;;;;;;5053534;28;20242;-75
2022/01/04 06:06:50;;;;;;;32.33;16.13;;;;;;;;;;5052773;28;20263;-69
2022/01/04 06:09:23;;;;;;;31.93;12.33;;;;;;;;;;5070439;28;20240;-71
2022/01/04 06:17:00;;;;;;;27.27;12.87;;;;;;;;;;5073536;28;20253;-73
2022/01/04 06:19:27;;;;;;;33.50;14.33;;;;;;;;;;5054218;28;20322;-70
2022/01/04 06:21:55;;;;;;;28.33;11.73;;;;;;;;;;5054335;28;20240;-67
2022/01/04 06:24:22;;;;;;;32.07;11.97;;;;;;;;;;5052562;28;20582;-70
2022/01/04 06:26:50;;;;;;;28.10;16.20;;;;;;;;;;5054124;28;20236;-72
2022/01/04 06:29:19;;;;;;;32.33;13.50;;;;;;;;;;5062121;28;20265;-71
2022/01/04 06:31:47;;;;;;;28.83;12.43;;;;;;;;;;5072308;28;20225;-68
2022/01/04 06:34:15;;;;;;;26.10;11.77;;;;;;;;;;5071825;28;20266;-73
2022/01/04 06:36:44;;;;;;;26.87;12.13;;;;;;;;;;5070852;28;20263;-68
2022/01/04 06:39:14;;;;;;;24.73;12.10;;;;;;;;;;5071393;28;20239;-66
2022/01/04 06:41:43;;;;;;;32.43;12.50;;;;;;;;;;5069016;28;21045;-68
2022/01/04 06:44:12;;;;;;;49.60;17.07;;;;;;;;;;5070205;28;20358;-64
2022/01/04 06:46:45;;;;;;;36.37;15.73;;;;;;;;;;5072756;28;20238;-74
2022/01/04 06:49:13;;;;;;;49.83;20.33;;;;;;;;;;5071739;28;20322;-71
2022/01/04 06:51:43;;;;;;;41.00;14.10;;;;;;;;;;5073136;28;20323;-68
2022/01/04 06:54:16;;;;;;;25.67;12.13;;;;;;;;;;5055731;28;20652;-68
2022/01/04 06:56:44;;;;;;;25.97;11.93;;;;;;;;;;5073361;28;20645;-74
2022/01/04 06:59:12;;;;;;;81.70;24.53;;;;;;;;;;5072867;28;20258;-69
2022/01/04 07:01:43;;;;;;;41.87;16.90;;;;;;;;;;5054967;28;20226;-70
2022/01/04 07:04:14;;;;;;;35.50;14.70;;;;;;;;;;5072910;28;20235;-67
2022/01/04 07:06:44;;;;;;;26.20;11.80;;;;;;;;;;5073444;28;20228;-66
2022/01/04 07:09:12;;;;;;;53.97;20.10;;;;;;;;;;5072882;28;20242;-69
2022/01/04 07:11:40;;;;;;;50.33;17.03;;;;;;;;;;5072821;28;20235;-68
2022/01/04 07:14:09;;;;;;;43.90;17.97;;;;;;;;;;5072589;28;20281;-70
2022/01/04 07:16:38;;;;;;;41.73;17.50;;;;;;;;;;5072853;28;20231;-70
2022/01/04 07:19:06;;;;;;;57.27;22.80;;;;;;;;;;5073320;28;20242;-71
2022/01/04 07:21:35;;;;;;;86.47;32.87;;;;;;;;;;5077249;28;20231;-69
2022/01/04 07:24:04;;;;;;;65.00;23.20;;;;;;;;;;5082453;28;20238;-67
2022/01/04 07:26:32;;;;;;;36.43;14.47;;;;;;;;;;5065289;28;20690;-72
2022/01/04 07:29:01;;;;;;;80.73;34.87;;;;;;;;;;5069264;28;20243;-68
2022/01/04 07:31:32;;;;;;;43.30;17.20;;;;;;;;;;5071406;28;20265;-66
2022/01/04 07:34:03;;;;;;;42.50;15.87;;;;;;;;;;5065332;28;20243;-70
2022/01/04 07:36:33;;;;;;;58.10;20.87;;;;;;;;;;5068341;28;20219;-68
2022/01/04 07:39:00;;;;;;;93.77;29.03;;;;;;;;;;5064422;28;20235;-69
2022/01/04 07:41:29;;;;;;;73.20;26.80;;;;;;;;;;5065539;28;20288;-71
2022/01/04 07:43:56;;;;;;;37.57;19.57;;;;;;;;;;5064966;28;20238;-65
2022/01/04 07:46:25;;;;;;;71.60;25.13;;;;;;;;;;5064681;28;20238;-64
2022/01/04 07:48:57;;;;;;;83.93;27.83;;;;;;;;;;5063833;28;20625;-65
2022/01/04 07:51:27;;;;;;;86.17;30.40;;;;;;;;;;5066449;28;20723;-67
2022/01/04 07:53:54;;;;;;;51.97;19.80;;;;;;;;;;5064860;28;20729;-68
2022/01/04 07:56:22;;;;;;;38.80;17.00;;;;;;;;;;5065948;28;20266;-67
2022/01/04 07:58:49;;;;;;;36.60;15.10;;;;;;;;;;5066680;28;20239;-68
2022/01/04 08:01:18;;;;;;;52.17;19.63;;;;;;;;;;5065840;28;20235;-68
2022/01/04 08:03:46;;;;;;;38.60;16.57;;;;;;;;;;5065091;28;20261;-68
2022/01/04 08:06:15;;;;;;;56.40;20.80;;;;;;;;;;5067179;28;20714;-62
2022/01/04 08:08:44;;;;;;;56.53;22.83;;;;;;;;;;5064814;28;20293;-69
2022/01/04 08:11:20;;;;;;;97.53;45.20;;;;;;;;;;5065305;28;20589;-65
2022/01/04 08:13:49;;;;;;;74.90;25.10;;;;;;;;;;5064861;28;20231;-64
2022/01/04 08:16:17;;;;;;;45.03;18.60;;;;;;;;;;5065045;28;20255;-65
2022/01/04 08:18:48;;;;;;;28.50;15.07;;;;;;;;;;5064506;28;20315;-69
2022/01/04 08:21:34;;;;;;;46.27;17.83;;;;;;;;;;5068615;28;20296;-71
2022/01/04 08:24:03;;;;;;;57.10;20.77;;;;;;;;;;5066788;28;20258;-73
2022/01/04 08:26:37;;;;;;;48.13;19.03;;;;;;;;;;5064943;28;20239;-72
2022/01/04 08:29:07;;;;;;;56.30;19.53;;;;;;;;;;5065570;28;20552;-64
2022/01/04 08:31:36;;;;;;;45.13;24.00;;;;;;;;;;5063803;28;20220;-65
2022/01/04 08:34:04;;;;;;;49.47;19.43;;;;;;;;;;5063937;28;20223;-71
2022/01/04 08:36:38;;;;;;;39.27;16.13;;;;;;;;;;5064358;28;20634;-67
2022/01/04 08:39:14;;;;;;;33.43;15.00;;;;;;;;;;5065682;28;20236;-65
2022/01/04 08:41:45;;;;;;;34.10;14.40;;;;;;;;;;5060872;28;20734;-68
2022/01/04 08:44:14;;;;;;;36.60;16.30;;;;;;;;;;5068313;28;20705;-68
2022/01/04 08:46:42;;;;;;;45.83;17.27;;;;;;;;;;5065663;28;20238;-66
2022/01/04 08:49:30;;;;;;;53.57;20.50;;;;;;;;;;5062338;28;20349;-68
2022/01/04 08:52:04;;;;;;;72.77;49.00;;;;;;;;;;5067372;28;20208;-68
2022/01/04 08:54:35;;;;;;;40.73;16.30;;;;;;;;;;5075085;28;20227;-71
2022/01/04 08:57:04;;;;;;;40.53;15.20;;;;;;;;;;5075807;28;20626;-65
2022/01/04 08:59:33;;;;;;;37.90;16.30;;;;;;;;;;5075047;28;20324;-64
2022/01/04 09:02:01;;;;;;;44.70;20.63;;;;;;;;;;5072538;28;20207;-69
2022/01/04 09:04:30;;;;;;;33.73;15.63;;;;;;;;;;5069151;28;20219;-70
2022/01/04 09:07:00;;;;;;;28.20;14.80;;;;;;;;;;5067108;28;20250;-68
2022/01/04 09:09:31;;;;;;;33.33;14.27;;;;;;;;;;5074701;28;20717;-70
2022/01/04 09:12:24;;;;;;;38.53;18.67;;;;;;;;;;5072222;28;20569;-74
2022/01/04 09:15:06;;;;;;;35.40;17.93;;;;;;;;;;5073385;28;20224;-64
2022/01/04 09:20:15;;;;;;;34.87;15.87;;;;;;;;;;5063511;28;20678;-65
2022/01/04 09:22:43;;;;;;;31.43;14.87;;;;;;;;;;5070852;28;20219;-66
2022/01/04 09:25:12;;;;;;;28.47;14.90;;;;;;;;;;5074335;28;20243;-63
2022/01/04 09:27:40;;;;;;;32.13;15.57;;;;;;;;;;5075722;28;20211;-73
2022/01/04 09:30:08;;;;;;;35.40;16.43;;;;;;;;;;5074071;28;20298;-69
2022/01/04 09:32:36;;;;;;;45.10;18.90;;;;;;;;;;5071016;28;20245;-67
2022/01/04 09:35:05;;;;;;;41.17;19.67;;;;;;;;;;5074055;28;20239;-70
2022/01/04 09:37:35;;;;;;;33.40;17.33;;;;;;;;;;5073314;28;20208;-72
2022/01/04 09:40:09;;;;;;;31.80;15.63;;;;;;;;;;5074853;28;20215;-73
2022/01/04 09:42:38;;;;;;;34.00;16.63;;;;;;;;;;5073877;28;20266;-68
2022/01/04 09:45:06;;;;;;;33.77;17.17;;;;;;;;;;5075605;28;20584;-66
2022/01/04 09:47:34;;;;;;;70.17;23.97;;;;;;;;;;5075308;28;20212;-65
2022/01/04 09:50:08;;;;;;;46.90;20.20;;;;;;;;;;5074304;28;20207;-62
2022/01/04 09:52:40;;;;;;;41.70;17.67;;;;;;;;;;5074411;28;20697;-64
2022/01/04 09:55:09;;;;;;;87.00;77.50;;;;;;;;;;5072150;28;20231;-68
2022/01/04 09:57:43;;;;;;;37.27;19.37;;;;;;;;;;5064953;28;20238;-68
2022/01/04 10:00:14;;;;;;;34.83;16.67;;;;;;;;;;5072152;28;20603;-69
2022/01/04 10:02:47;;;;;;;33.83;15.60;;;;;;;;;;5073584;28;20257;-65
2022/01/04 10:05:20;;;;;;;25.93;13.37;;;;;;;;;;5073043;28;20215;-66
2022/01/04 10:07:50;;;;;;;29.97;14.97;;;;;;;;;;5073450;28;20239;-71
2022/01/04 10:10:18;;;;;;;27.87;14.23;;;;;;;;;;5066563;28;20207;-66
2022/01/04 10:12:53;;;;;;;26.10;13.83;;;;;;;;;;5042558;28;20294;-68
2022/01/04 10:15:34;;;;;;;27.70;13.83;;;;;;;;;;5057056;28;20268;-65
2022/01/04 10:18:03;;;;;;;35.83;16.70;;;;;;;;;;5058865;28;20219;-70
2022/01/04 10:20:31;;;;;;;32.13;15.30;;;;;;;;;;5064034;28;20207;-66
2022/01/04 10:23:09;;;;;;;28.10;13.40;;;;;;;;;;5066457;28;20224;-69
2022/01/04 10:25:38;;;;;;;29.23;13.97;;;;;;;;;;5065971;28;20208;-64
2022/01/04 10:28:12;;;;;;;25.67;13.50;;;;;;;;;;5063103;28;20214;-64
2022/01/04 10:30:45;;;;;;;31.03;14.87;;;;;;;;;;5074015;28;20263;-70
2022/01/04 10:33:21;;;;;;;40.33;17.90;;;;;;;;;;5074277;28;20210;-74
2022/01/04 10:35:51;;;;;;;39.73;15.87;;;;;;;;;;5074961;28;20227;-73
2022/01/04 10:38:30;;;;;;;28.70;18.67;;;;;;;;;;5074601;28;20268;-71
2022/01/04 10:41:10;;;;;;;35.00;17.00;;;;;;;;;;5073736;28;20289;-66
2022/01/04 10:43:41;;;;;;;28.67;14.00;;;;;;;;;;5071725;28;20207;-66
2022/01/04 10:46:14;;;;;;;32.27;16.17;;;;;;;;;;5071273;28;20746;-67
2022/01/04 10:48:49;;;;;;;20.93;12.60;;;;;;;;;;5073320;28;20238;-66
2022/01/04 10:51:21;;;;;;;23.73;13.47;;;;;;;;;;5073931;28;20741;-68
2022/01/04 10:53:53;;;;;;;25.97;13.73;;;;;;;;;;5073183;28;20243;-70
2022/01/04 10:56:28;;;;;;;18.73;11.90;;;;;;;;;;5067092;28;20238;-70
2022/01/04 10:58:58;;;;;;;38.10;15.07;;;;;;;;;;5070359;28;20250;-66
2022/01/04 11:01:29;;;;;;;65.33;58.63;;;;;;;;;;5065184;28;20698;-66
2022/01/04 11:03:59;;;;;;;38.80;17.00;;;;;;;;;;5065848;28;20234;-68
2022/01/04 11:06:36;;;;;;;29.93;13.67;;;;;;;;;;5070160;28;20252;-68
2022/01/04 11:09:06;;;;;;;20.67;11.50;;;;;;;;;;5065306;28;20298;-68
2022/01/04 11:11:34;;;;;;;21.03;11.80;;;;;;;;;;5051827;28;20212;-71
2022/01/04 11:14:03;;;;;;;21.90;12.23;;;;;;;;;;5050488;28;20236;-64
2022/01/04 11:16:31;;;;;;;20.33;11.73;;;;;;;;;;5064908;28;20239;-69
2022/01/04 11:19:02;;;;;;;18.07;11.07;;;;;;;;;;5066460;28;20250;-66
2022/01/04 11:21:40;;;;;;;29.47;13.40;;;;;;;;;;5063695;28;20218;-67
2022/01/04 11:24:16;;;;;;;31.10;16.73;;;;;;;;;;5046233;28;20286;-69
2022/01/04 11:26:47;;;;;;;39.43;16.77;;;;;;;;;;5063103;28;20642;-68
2022/01/04 11:29:15;;;;;;;26.57;13.20;;;;;;;;;;5059661;28;20295;-69
2022/01/04 11:31:48;;;;;;;24.50;12.77;;;;;;;;;;5039486;28;20231;-67
2022/01/04 11:34:39;;;;;;;20.63;11.70;;;;;;;;;;5062685;28;20231;-67
2022/01/04 11:37:06;;;;;;;23.40;13.43;;;;;;;;;;5059425;28;20235;-63
2022/01/04 11:39:39;;;;;;;47.67;18.87;;;;;;;;;;5054189;28;20702;-66
2022/01/04 11:42:13;;;;;;;46.07;17.90;;;;;;;;;;5060036;28;20240;-65
2022/01/04 11:44:47;;;;;;;51.47;24.83;;;;;;;;;;5061807;28;20239;-71
2022/01/04 11:47:18;;;;;;;36.75;15.93;;;;;;;;;;5083400;28;20236;-68
2022/01/04 11:50:03;;;;;;;29.77;14.50;;;;;;;;;;5061980;28;20323;-68
2022/01/04 11:52:46;;;;;;;32.10;15.00;;;;;;;;;;5059340;28;20258;-61
2022/01/04 11:55:21;;;;;;;34.97;15.63;;;;;;;;;;5058844;28;20275;-68
2022/01/04 11:57:50;;;;;;;55.20;18.60;;;;;;;;;;5059272;28;20238;-64
2022/01/04 12:00:26;;;;;;;59.17;18.87;;;;;;;;;;5058007;28;20232;-69
2022/01/04 12:03:06;;;;;;;61.97;18.95;;;;;;;;;;5062903;28;20235;-69
2022/01/04 12:05:39;;;;;;;28.60;24.07;;;;;;;;;;5064502;28;20309;-68
2022/01/04 12:08:42;;;;;;;50.13;22.80;;;;;;;;;;5067364;28;20690;-65
2022/01/04 12:11:26;;;;;;;37.90;15.70;;;;;;;;;;5064039;28;20697;-68
2022/01/04 12:14:02;;;;;;;21.03;10.87;;;;;;;;;;5068192;28;20269;-67
2022/01/04 12:16:38;;;;;;;19.13;9.77;;;;;;;;;;5060580;28;20296;-67
2022/01/04 12:19:07;;;;;;;18.80;9.30;;;;;;;;;;5061215;28;20322;-67
2022/01/04 12:21:47;;;;;;;22.07;9.27;;;;;;;;;;5060297;28;20236;-69
2022/01/04 12:24:22;;;;;;;30.07;11.10;;;;;;;;;;5062018;28;20232;-71
2022/01/04 12:27:07;;;;;;;20.00;12.43;;;;;;;;;;5059463;28;20235;-68
2022/01/04 12:29:34;;;;;;;51.05;17.13;;;;;;;;;;5059953;28;20311;-69
2022/01/04 12:32:04;;;;;;;32.33;12.00;;;;;;;;;;5059693;28;20228;-65
2022/01/04 12:34:33;;;;;;;26.67;10.80;;;;;;;;;;5068563;28;20314;-66
2022/01/04 12:37:05;;;;;;;13.77;6.63;;;;;;;;;;5058346;28;20327;-65
2022/01/04 12:39:42;;;;;;;15.30;7.37;;;;;;;;;;5059005;28;20292;-70
2022/01/04 12:42:11;;;;;;;37.38;13.15;;;;;;;;;;5059907;28;20239;-64
2022/01/04 12:44:42;;;;;;;35.50;12.30;;;;;;;;;;5059335;28;20239;-66
2022/01/04 12:47:10;;;;;;;272.73;113.77;;;;;;;;;;5060377;28;20242;-65
2022/01/04 12:49:38;;;;;;;35.33;15.00;;;;;;;;;;5058936;28;20592;-66
2022/01/04 12:52:08;;;;;;;51.27;17.13;;;;;;;;;;5058337;28;20243;-64
2022/01/04 12:54:41;;;;;;;30.37;11.03;;;;;;;;;;5058136;28;20619;-64
2022/01/04 12:57:15;;;;;;;17.73;8.07;;;;;;;;;;5065767;28;20244;-63
2022/01/04 12:59:56;;;;;;;38.43;12.10;;;;;;;;;;5059230;28;20239;-66
2022/01/04 13:02:30;;;;;;;70.93;20.27;;;;;;;;;;5064163;28;20266;-66
2022/01/04 13:05:06;;;;;;;65.87;19.00;;;;;;;;;;5065265;28;20710;-65
2022/01/04 13:07:36;;;;;;;131.10;58.77;;;;;;;;;;5067239;28;20235;-63
2022/01/04 13:10:11;;;;;;;44.73;35.80;;;;;;;;;;5064143;28;20235;-63
2022/01/04 13:12:45;;;;;;;77.00;26.80;;;;;;;;;;5064183;28;20262;-62
2022/01/04 13:15:19;;;;;;;32.70;12.17;;;;;;;;;;5063963;28;20235;-64
2022/01/04 13:17:53;;;;;;;36.43;14.73;;;;;;;;;;5063696;28;20235;-64
2022/01/04 13:20:28;;;;;;;31.83;12.37;;;;;;;;;;5065762;28;20240;-66
2022/01/04 13:22:57;;;;;;;21.43;9.60;;;;;;;;;;5063203;28;20671;-63
2022/01/04 13:25:28;;;;;;;31.53;12.57;;;;;;;;;;5069800;28;20232;-66
2022/01/04 13:28:03;;;;;;;44.97;17.77;;;;;;;;;;5054321;28;20350;-62
2022/01/04 13:30:31;;;;;;;137.50;60.13;;;;;;;;;;5057120;28;20718;-61
2022/01/04 13:33:00;;;;;;;57.97;20.00;;;;;;;;;;5053985;28;20240;-67
2022/01/04 13:35:39;;;;;;;50.13;17.83;;;;;;;;;;5054558;28;20255;-67
2022/01/04 13:38:13;;;;;;;34.57;16.20;;;;;;;;;;5053606;28;20263;-66
2022/01/04 13:40:43;;;;;;;36.53;16.17;;;;;;;;;;5054621;28;20231;-66
2022/01/04 13:43:28;;;;;;;44.40;18.47;;;;;;;;;;5059564;28;20236;-62
2022/01/04 13:46:10;;;;;;;104.23;28.53;;;;;;;;;;5065042;28;20237;-64
2022/01/04 13:48:40;;;;;;;89.30;24.27;;;;;;;;;;5061362;28;20599;-66
2022/01/04 13:51:18;;;;;;;169.52;102.68;;;;;;;;;;5065078;28;20699;-69
2022/01/04 13:53:48;;;;;;;108.37;31.87;;;;;;;;;;5064084;28;20240;-68
2022/01/04 13:56:16;;;;;;;55.37;21.27;;;;;;;;;;5065650;28;20253;-65
2022/01/04 13:58:50;;;;;;;34.53;17.00;;;;;;;;;;5067815;28;20569;-67
2022/01/04 14:01:34;;;;;;;58.00;21.80;;;;;;;;;;5063952;28;20701;-66
2022/01/04 14:04:10;;;;;;;121.47;52.00;;;;;;;;;;5068572;28;20295;-62
2022/01/04 14:06:39;;;;;;;220.00;123.27;;;;;;;;;;5067023;28;20234;-66
2022/01/04 14:09:22;;;;;;;259.00;149.53;;;;;;;;;;5072895;28;20230;-65
2022/01/04 14:12:00;;;;;;;99.50;88.73;;;;;;;;;;5073349;28;20293;-68
2022/01/04 14:14:32;;;;;;;63.03;30.57;;;;;;;;;;5073506;28;20580;-64
2022/01/04 14:17:04;;;;;;;63.60;24.80;;;;;;;;;;5064003;28;20836;-67
2022/01/04 14:19:51;;;;;;;44.50;20.30;;;;;;;;;;5074117;28;20321;-68
2022/01/04 14:22:21;;;;;;;29.87;16.20;;;;;;;;;;5071292;28;20239;-66
2022/01/04 14:24:53;;;;;;;29.57;16.50;;;;;;;;;;5066293;28;20330;-65
2022/01/04 14:27:35;;;;;;;25.17;14.57;;;;;;;;;;5064165;28;20267;-65
2022/01/04 14:30:09;;;;;;;94.90;52.30;;;;;;;;;;5071133;28;20928;-64
2022/01/04 14:32:36;;;;;;;132.77;53.80;;;;;;;;;;5062554;28;20227;-66
2022/01/04 14:35:19;;;;;;;79.27;35.13;;;;;;;;;;5068603;28;20297;-65
2022/01/04 14:37:49;;;;;;;61.67;23.70;;;;;;;;;;5063964;28;20300;-65
2022/01/04 14:40:19;;;;;;;187.50;88.63;;;;;;;;;;5070552;28;20251;-66
2022/01/04 14:42:46;;;;;;;53.13;29.83;;;;;;;;;;5068360;28;20231;-66
2022/01/04 14:45:19;;;;;;;74.73;39.23;;;;;;;;;;5065580;28;20250;-64
2022/01/04 14:47:48;;;;;;;50.53;23.77;;;;;;;;;;5061882;28;20242;-66